Time;durP1;ratioP1;P1;durP2;ratioP2;P2;SDS_P1;SDS_P2;PMS_P1;PMS_P2;Temp;Humidity;BMP_temperature;BMP_pressure;BME280_temperature;BME280_humidity;BME280_pressure;Samples;Min_cycle;Max_cycle;Signal;HPM_P1;HPM_P2
2021/06/19 00:01:29;;;;;;;11.07;8.45;;;17.60;99.90;;;;;;5022939;28;20235;-72
2021/06/19 00:03:55;;;;;;;9.02;7.10;;;17.60;99.90;;;;;;5039844;28;20194;-72
2021/06/19 00:06:21;;;;;;;10.70;6.65;;;17.60;99.90;;;;;;5038986;28;20240;-72
2021/06/19 00:08:47;;;;;;;11.30;7.88;;;17.60;99.90;;;;;;5040645;28;20197;-72
2021/06/19 00:11:13;;;;;;;12.77;8.20;;;17.60;99.90;;;;;;5038762;28;20224;-71
2021/06/19 00:13:38;;;;;;;12.32;8.35;;;17.60;99.90;;;;;;5042352;28;21599;-69
2021/06/19 00:16:05;;;;;;;12.10;9.00;;;17.60;99.90;;;;;;5017991;28;20644;-70
2021/06/19 00:18:32;;;;;;;13.73;9.43;;;17.60;99.90;;;;;;5024463;28;20189;-71
2021/06/19 00:20:58;;;;;;;11.18;8.13;;;17.50;99.90;;;;;;5041711;28;20185;-72
2021/06/19 00:23:24;;;;;;;14.10;8.00;;;17.50;99.90;;;;;;5021668;28;20568;-71
2021/06/19 00:25:50;;;;;;;11.23;9.20;;;17.50;99.90;;;;;;5039006;28;20209;-71
2021/06/19 00:28:16;;;;;;;20.20;9.57;;;17.40;99.90;;;;;;5039528;28;20247;-72
2021/06/19 00:30:41;;;;;;;13.73;10.02;;;17.40;99.90;;;;;;5023422;28;20201;-72
2021/06/19 00:33:07;;;;;;;14.10;9.30;;;17.40;99.90;;;;;;5021196;28;20695;-71
2021/06/19 00:35:33;;;;;;;16.83;9.30;;;17.30;99.90;;;;;;5040023;28;20805;-71
2021/06/19 00:37:59;;;;;;;17.80;9.57;;;17.40;99.90;;;;;;5038354;28;20216;-71
2021/06/19 00:40:25;;;;;;;15.88;9.95;;;17.40;99.90;;;;;;5040790;28;20196;-71
2021/06/19 00:42:56;;;;;;;12.55;9.68;;;17.50;99.90;;;;;;5023085;28;20201;-71
2021/06/19 00:45:24;;;;;;;19.23;11.00;;;17.50;99.90;;;;;;5021242;28;20202;-71
2021/06/19 00:47:50;;;;;;;36.63;12.57;;;17.50;99.90;;;;;;5038499;28;20193;-73
2021/06/19 00:50:16;;;;;;;23.33;12.07;;;17.40;99.90;;;;;;5039148;28;20459;-72
2021/06/19 00:52:43;;;;;;;24.42;11.77;;;17.50;99.90;;;;;;5038857;28;20243;-72
2021/06/19 00:55:09;;;;;;;17.75;11.65;;;17.40;99.90;;;;;;5040032;28;20540;-72
2021/06/19 00:57:36;;;;;;;17.73;11.13;;;17.50;99.90;;;;;;5038720;28;20202;-72
2021/06/19 01:00:04;;;;;;;22.42;11.38;;;17.50;99.90;;;;;;5023027;28;20714;-72
2021/06/19 01:02:30;;;;;;;16.45;10.82;;;17.60;99.90;;;;;;5040363;22;20241;-71
2021/06/19 01:04:56;;;;;;;13.63;9.20;;;17.60;99.90;;;;;;5040225;28;20190;-72
2021/06/19 01:07:22;;;;;;;14.93;10.27;;;17.60;99.90;;;;;;5040954;28;20208;-72
2021/06/19 01:09:47;;;;;;;16.40;10.07;;;17.70;99.90;;;;;;5040995;28;20200;-71
2021/06/19 01:12:13;;;;;;;19.10;10.68;;;17.70;99.90;;;;;;5032742;28;20197;-72
2021/06/19 01:14:39;;;;;;;20.50;11.30;;;17.70;99.90;;;;;;5040848;28;20247;-71
2021/06/19 01:17:05;;;;;;;20.05;11.75;;;17.70;99.90;;;;;;5040984;28;20189;-72
2021/06/19 01:19:31;;;;;;;18.20;10.90;;;17.70;99.90;;;;;;5021923;28;20201;-72
2021/06/19 01:21:56;;;;;;;13.88;9.68;;;17.70;99.90;;;;;;5042206;28;20301;-71
2021/06/19 01:24:23;;;;;;;20.17;10.27;;;17.70;99.90;;;;;;5045445;28;20198;-71
2021/06/19 01:26:51;;;;;;;14.15;10.15;;;17.60;99.90;;;;;;5029047;28;20198;-71
2021/06/19 01:29:17;;;;;;;14.70;9.00;;;17.60;99.90;;;;;;5023532;28;20201;-72
2021/06/19 01:31:43;;;;;;;13.68;9.00;;;17.60;99.90;;;;;;5046432;28;20806;-72
2021/06/19 01:34:09;;;;;;;10.63;8.32;;;17.60;99.90;;;;;;5046810;28;20284;-70
2021/06/19 01:36:35;;;;;;;13.65;8.80;;;17.50;99.90;;;;;;5047010;28;20268;-71
2021/06/19 01:39:01;;;;;;;13.48;8.40;;;17.50;99.90;;;;;;5043634;28;20189;-72
2021/06/19 01:41:31;;;;;;;11.10;8.38;;;17.50;99.90;;;;;;5046071;28;20205;-71
2021/06/19 01:44:08;;;;;;;11.55;8.55;;;17.50;99.90;;;;;;5046229;28;20212;-72
2021/06/19 01:46:38;;;;;;;9.40;6.97;;;17.50;99.90;;;;;;5021836;28;20201;-71
2021/06/19 01:49:04;;;;;;;10.35;6.40;;;17.40;99.90;;;;;;5046792;28;20257;-72
2021/06/19 01:51:30;;;;;;;11.48;6.68;;;17.50;99.90;;;;;;5044684;28;20692;-72
2021/06/19 01:53:56;;;;;;;8.18;6.28;;;17.50;99.90;;;;;;5034583;28;20222;-72
2021/06/19 01:56:23;;;;;;;12.38;7.35;;;17.50;99.90;;;;;;5023505;28;20255;-72
2021/06/19 01:58:50;;;;;;;9.60;7.03;;;17.40;99.90;;;;;;5023671;28;20196;-71
2021/06/19 02:01:16;;;;;;;9.40;6.68;;;17.30;99.90;;;;;;5037351;28;20221;-72
2021/06/19 02:03:43;;;;;;;10.80;7.13;;;17.30;99.90;;;;;;5022701;28;20228;-72
2021/06/19 02:06:10;;;;;;;11.52;6.93;;;17.30;99.90;;;;;;5043256;28;20734;-72
2021/06/19 02:08:37;;;;;;;10.73;7.00;;;17.20;99.90;;;;;;5020136;28;20194;-72
2021/06/19 02:11:05;;;;;;;14.07;6.90;;;17.20;99.90;;;;;;5039808;28;20205;-72
2021/06/19 02:13:31;;;;;;;7.53;5.60;;;17.20;99.90;;;;;;5022367;28;20213;-72
2021/06/19 02:15:58;;;;;;;8.77;6.10;;;17.10;99.90;;;;;;5038680;28;20224;-72
2021/06/19 02:18:25;;;;;;;9.23;5.18;;;17.10;99.90;;;;;;5042052;28;20231;-71
2021/06/19 02:20:53;;;;;;;10.13;5.20;;;17.00;99.90;;;;;;5039812;28;20221;-71
2021/06/19 02:23:23;;;;;;;10.50;5.28;;;17.00;99.90;;;;;;5041183;28;20687;-72
2021/06/19 02:25:53;;;;;;;6.25;4.68;;;17.00;99.90;;;;;;5039102;28;20970;-72
2021/06/19 02:28:24;;;;;;;6.00;4.63;;;17.00;99.90;;;;;;5039949;28;20292;-72
2021/06/19 02:30:54;;;;;;;8.57;4.40;;;16.90;99.90;;;;;;5022480;28;20208;-72
2021/06/19 02:33:20;;;;;;;6.97;4.63;;;17.00;99.90;;;;;;5039138;28;20274;-72
2021/06/19 02:35:47;;;;;;;6.53;4.93;;;17.00;99.90;;;;;;5040573;28;20682;-72
2021/06/19 02:38:14;;;;;;;7.20;5.35;;;17.00;99.90;;;;;;5040296;28;20221;-72
2021/06/19 02:40:41;;;;;;;7.05;5.38;;;17.00;99.90;;;;;;5038956;28;21635;-72
2021/06/19 02:43:08;;;;;;;9.52;6.88;;;17.00;99.90;;;;;;5022850;28;20231;-72
2021/06/19 02:45:34;;;;;;;10.48;6.93;;;17.00;99.90;;;;;;5021271;28;20914;-71
2021/06/19 02:48:00;;;;;;;13.50;7.85;;;17.00;99.90;;;;;;5023750;28;20204;-71
2021/06/19 02:50:31;;;;;;;16.48;9.38;;;16.90;99.90;;;;;;5022963;28;20198;-72
2021/06/19 02:52:59;;;;;;;14.60;9.55;;;17.00;99.90;;;;;;5038516;28;20793;-71
2021/06/19 02:55:28;;;;;;;13.20;10.05;;;17.10;99.90;;;;;;5037152;28;20538;-72
2021/06/19 02:57:54;;;;;;;16.50;11.45;;;17.10;99.90;;;;;;5036335;28;20189;-71
2021/06/19 03:00:22;;;;;;;17.25;12.10;;;17.20;99.90;;;;;;5039079;28;20203;-72
2021/06/19 03:02:48;;;;;;;17.25;11.45;;;17.30;99.90;;;;;;5037853;28;20229;-71
2021/06/19 03:05:16;;;;;;;13.77;9.15;;;17.30;99.90;;;;;;5039287;28;20262;-71
2021/06/19 03:07:42;;;;;;;13.38;8.57;;;17.30;99.90;;;;;;5038727;28;20312;-72
2021/06/19 03:10:10;;;;;;;13.80;7.40;;;17.30;99.90;;;;;;5039066;28;20202;-71
2021/06/19 03:12:36;;;;;;;10.13;7.07;;;17.30;99.90;;;;;;5037778;28;20258;-71
2021/06/19 03:15:04;;;;;;;12.85;6.80;;;17.30;99.90;;;;;;5019415;28;20623;-71
2021/06/19 03:17:30;;;;;;;11.80;5.90;;;17.30;99.90;;;;;;5038575;28;20196;-71
2021/06/19 03:19:56;;;;;;;12.30;5.57;;;17.10;99.90;;;;;;5020637;28;20186;-71
2021/06/19 03:22:21;;;;;;;9.90;4.15;;;17.00;99.90;;;;;;5039854;28;20706;-71
2021/06/19 03:24:47;;;;;;;5.53;3.28;;;16.90;99.90;;;;;;5035051;28;20239;-72
2021/06/19 03:27:15;;;;;;;10.45;3.47;;;16.70;99.90;;;;;;5039739;28;20225;-72
2021/06/19 03:29:41;;;;;;;7.55;3.35;;;16.50;99.90;;;;;;5039523;28;20217;-72
2021/06/19 03:32:08;;;;;;;5.95;3.00;;;16.40;99.90;;;;;;5039748;28;20217;-72
2021/06/19 03:34:34;;;;;;;8.82;3.20;;;16.20;99.90;;;;;;5037034;28;20224;-71
2021/06/19 03:37:00;;;;;;;8.80;2.70;;;16.20;99.90;;;;;;5039391;28;20738;-72
2021/06/19 03:39:42;;;;;;;4.20;2.60;;;16.10;99.90;;;;;;5038797;28;20302;-72
2021/06/19 03:42:07;;;;;;;12.20;3.10;;;16.00;99.90;;;;;;5021412;28;20208;-72
2021/06/19 03:44:33;;;;;;;3.50;2.50;;;15.90;99.90;;;;;;5036318;28;20653;-71
2021/06/19 03:46:59;;;;;;;4.47;2.72;;;15.90;99.90;;;;;;5037337;28;20201;-73
2021/06/19 03:49:24;;;;;;;4.35;2.63;;;15.80;99.90;;;;;;5037875;28;20200;-72
2021/06/19 03:51:50;;;;;;;4.45;2.22;;;15.80;99.90;;;;;;5020304;28;20292;-72
2021/06/19 03:54:16;;;;;;;3.70;2.45;;;15.80;99.90;;;;;;5037532;28;20214;-72
2021/06/19 03:56:42;;;;;;;4.95;2.47;;;15.80;99.90;;;;;;5038521;28;20200;-71
2021/06/19 03:59:08;;;;;;;7.80;2.53;;;15.80;99.90;;;;;;5037699;28;20190;-72
2021/06/19 04:01:34;;;;;;;6.13;2.30;;;15.80;99.90;;;;;;5022452;28;20193;-71
2021/06/19 04:04:00;;;;;;;3.80;2.40;;;15.70;99.90;;;;;;5040001;28;20236;-71
2021/06/19 04:06:25;;;;;;;6.97;2.22;;;15.70;99.90;;;;;;5022164;28;20208;-72
2021/06/19 04:08:52;;;;;;;4.55;2.03;;;15.80;99.90;;;;;;5037839;28;20535;-73
2021/06/19 04:11:18;;;;;;;9.70;2.35;;;15.70;99.90;;;;;;5040282;28;20378;-71
2021/06/19 04:13:44;;;;;;;4.15;1.98;;;15.70;99.90;;;;;;5020665;28;20291;-72
2021/06/19 04:16:11;;;;;;;3.00;1.88;;;15.70;99.90;;;;;;5040369;28;20288;-71
2021/06/19 04:18:37;;;;;;;3.80;1.90;;;15.80;99.90;;;;;;5040636;28;20194;-72
2021/06/19 04:21:04;;;;;;;3.50;1.98;;;15.80;99.90;;;;;;5037191;28;20699;-71
2021/06/19 04:23:31;;;;;;;5.72;2.00;;;15.70;99.90;;;;;;5021790;28;20240;-72
2021/06/19 04:25:57;;;;;;;1.92;1.63;;;15.80;99.90;;;;;;5037770;28;20251;-71
2021/06/19 04:28:23;;;;;;;2.40;1.60;;;15.80;99.90;;;;;;5038815;28;20204;-72
2021/06/19 04:30:49;;;;;;;3.50;1.60;;;15.80;99.90;;;;;;5037655;28;20198;-71
2021/06/19 04:33:15;;;;;;;1.95;1.65;;;15.80;99.90;;;;;;5022328;28;20205;-71
2021/06/19 04:35:40;;;;;;;2.20;1.55;;;15.80;99.90;;;;;;5038890;28;20712;-71
2021/06/19 04:38:06;;;;;;;2.53;1.52;;;15.90;99.90;;;;;;5038870;28;20213;-71
2021/06/19 04:40:37;;;;;;;1.65;1.52;;;15.90;99.90;;;;;;5020271;28;20198;-71
2021/06/19 04:43:08;;;;;;;7.53;1.70;;;16.00;99.90;;;;;;5038797;28;20244;-72
2021/06/19 04:45:35;;;;;;;3.17;1.60;;;16.00;99.90;;;;;;5038064;28;20198;-71
2021/06/19 04:48:05;;;;;;;2.55;1.63;;;16.00;99.90;;;;;;5038762;28;20196;-71
2021/06/19 04:50:33;;;;;;;2.00;1.60;;;16.00;99.90;;;;;;5037895;28;21076;-71
2021/06/19 04:53:00;;;;;;;3.45;1.60;;;16.20;99.90;;;;;;5037776;28;20209;-72
2021/06/19 04:55:26;;;;;;;1.98;1.48;;;16.20;99.90;;;;;;5038270;28;20193;-71
2021/06/19 04:57:57;;;;;;;3.75;1.50;;;16.30;99.90;;;;;;5043248;28;20746;-71
2021/06/19 05:00:25;;;;;;;1.40;1.30;;;16.30;99.90;;;;;;5040007;28;20204;-73
2021/06/19 05:02:51;;;;;;;1.63;1.30;;;16.40;99.90;;;;;;5040684;28;20779;-72
2021/06/19 05:05:17;;;;;;;1.50;1.30;;;16.40;99.90;;;;;;5040386;28;20300;-72
2021/06/19 05:07:43;;;;;;;6.18;1.40;;;16.50;99.90;;;;;;5039592;28;20285;-72
2021/06/19 05:10:09;;;;;;;1.38;1.20;;;16.50;99.90;;;;;;5042594;28;20212;-71
2021/06/19 05:12:36;;;;;;;5.32;1.50;;;16.40;99.90;;;;;;5043276;28;20285;-72
2021/06/19 05:15:04;;;;;;;1.70;1.30;;;16.60;99.90;;;;;;5041602;28;20197;-72
2021/06/19 05:17:30;;;;;;;2.22;1.33;;;16.70;99.90;;;;;;5043412;28;20194;-72
2021/06/19 05:19:57;;;;;;;3.08;1.30;;;16.80;99.90;;;;;;5026539;28;20274;-72
2021/06/19 05:22:23;;;;;;;2.45;1.35;;;16.70;99.90;;;;;;5027616;28;20202;-71
2021/06/19 05:24:49;;;;;;;1.58;1.30;;;16.60;99.90;;;;;;5043302;28;20339;-71
2021/06/19 05:27:17;;;;;;;3.13;1.33;;;16.60;99.90;;;;;;5028267;28;20368;-72
2021/06/19 05:29:42;;;;;;;4.30;1.10;;;16.50;99.90;;;;;;5028137;28;20678;-74
2021/06/19 05:32:09;;;;;;;3.90;1.35;;;16.40;99.90;;;;;;5045439;28;20234;-73
2021/06/19 05:34:34;;;;;;;2.28;1.30;;;16.30;99.90;;;;;;5040868;28;20340;-72
2021/06/19 05:37:00;;;;;;;1.55;1.40;;;16.30;99.90;;;;;;5043502;28;20272;-72
2021/06/19 05:39:26;;;;;;;3.65;1.25;;;16.30;99.90;;;;;;5045613;28;20709;-72
2021/06/19 05:41:52;;;;;;;5.65;1.10;;;16.30;99.90;;;;;;5026514;28;20198;-73
2021/06/19 05:44:18;;;;;;;2.35;1.20;;;16.20;99.90;;;;;;5045955;28;20196;-72
2021/06/19 05:46:43;;;;;;;8.57;1.35;;;16.20;99.90;;;;;;5044439;28;20205;-73
2021/06/19 05:49:09;;;;;;;2.35;1.40;;;16.20;99.90;;;;;;5045362;28;20688;-71
2021/06/19 05:51:35;;;;;;;2.35;1.40;;;16.20;99.90;;;;;;5026769;28;20250;-72
2021/06/19 05:54:02;;;;;;;2.28;1.40;;;16.30;99.90;;;;;;5044231;28;20275;-72
2021/06/19 05:56:30;;;;;;;4.13;1.30;;;16.50;99.90;;;;;;5044979;28;20217;-73
2021/06/19 05:58:55;;;;;;;4.72;1.30;;;16.80;99.90;;;;;;5024688;28;20202;-74
2021/06/19 06:01:21;;;;;;;1.30;1.20;;;17.10;99.90;;;;;;5026455;28;20208;-71
2021/06/19 06:03:48;;;;;;;1.95;1.20;;;17.30;99.90;;;;;;5046346;28;20256;-74
2021/06/19 06:06:15;;;;;;;1.40;1.13;;;17.40;99.90;;;;;;5044701;28;20559;-72
2021/06/19 06:08:41;;;;;;;2.35;1.10;;;17.40;99.90;;;;;;5042458;28;20202;-72
2021/06/19 06:11:07;;;;;;;3.25;1.20;;;17.30;99.90;;;;;;5045173;28;20190;-73
2021/06/19 06:13:32;;;;;;;1.40;1.30;;;17.30;99.90;;;;;;5043487;28;20402;-73
2021/06/19 06:15:58;;;;;;;2.05;1.30;;;17.30;99.90;;;;;;5042857;28;20277;-71
2021/06/19 06:18:24;;;;;;;2.78;1.20;;;17.20;99.90;;;;;;5046058;28;20533;-73
2021/06/19 06:20:49;;;;;;;1.75;1.30;;;17.20;99.90;;;;;;5043651;28;20190;-72
2021/06/19 06:23:15;;;;;;;2.03;1.17;;;17.10;99.90;;;;;;5043236;28;20790;-75
2021/06/19 06:25:41;;;;;;;1.30;1.10;;;17.10;99.90;;;;;;5035061;28;20205;-72
2021/06/19 06:28:07;;;;;;;2.78;1.30;;;17.40;99.90;;;;;;5043070;28;20296;-72
2021/06/19 06:30:32;;;;;;;3.45;1.33;;;17.50;99.90;;;;;;5023089;28;20209;-71
2021/06/19 06:32:58;;;;;;;2.20;1.50;;;17.70;99.90;;;;;;5041245;28;20205;-74
2021/06/19 06:35:23;;;;;;;4.78;1.45;;;17.60;99.90;;;;;;5027414;28;20254;-74
2021/06/19 06:37:49;;;;;;;1.45;1.35;;;17.60;99.90;;;;;;5014993;28;20702;-72
2021/06/19 06:40:15;;;;;;;1.92;1.30;;;17.30;99.90;;;;;;5021785;28;20189;-73
2021/06/19 06:42:42;;;;;;;2.88;1.50;;;17.10;99.90;;;;;;5022561;28;20281;-73
2021/06/19 06:45:13;;;;;;;3.30;1.70;;;16.80;99.90;;;;;;5021331;28;20280;-73
2021/06/19 06:47:39;;;;;;;2.75;1.27;;;16.80;99.90;;;;;;5023024;28;20193;-73
2021/06/19 06:50:07;;;;;;;4.05;1.60;;;16.80;99.90;;;;;;5012460;28;20224;-73
2021/06/19 06:52:34;;;;;;;3.35;1.80;;;16.90;99.90;;;;;;5036383;28;20693;-76
2021/06/19 06:55:00;;;;;;;2.72;1.50;;;16.80;99.90;;;;;;5019736;28;20209;-74
2021/06/19 06:57:26;;;;;;;2.70;1.58;;;16.80;99.90;;;;;;5037908;28;20213;-72
2021/06/19 06:59:51;;;;;;;2.85;1.70;;;16.90;99.90;;;;;;5020087;28;20213;-75
2021/06/19 07:02:17;;;;;;;4.20;1.73;;;17.30;99.90;;;;;;5037699;28;20229;-72
2021/06/19 07:04:43;;;;;;;2.35;1.75;;;17.70;99.90;;;;;;5037002;28;20229;-76
2021/06/19 07:07:09;;;;;;;6.63;1.55;;;17.80;99.90;;;;;;5020206;28;20216;-74
2021/06/19 07:09:34;;;;;;;2.83;1.48;;;17.90;99.90;;;;;;5037924;28;20198;-74
2021/06/19 07:12:00;;;;;;;3.85;1.65;;;18.30;99.90;;;;;;5019697;28;20256;-72
2021/06/19 07:14:26;;;;;;;7.15;1.95;;;18.20;99.90;;;;;;5020296;28;20216;-73
2021/06/19 07:16:51;;;;;;;4.00;1.40;;;18.10;99.90;;;;;;5020485;28;20455;-71
2021/06/19 07:19:17;;;;;;;2.75;1.90;;;17.70;99.90;;;;;;5019346;28;20201;-72
2021/06/19 07:21:43;;;;;;;9.00;1.77;;;17.30;99.90;;;;;;5037720;28;20204;-73
2021/06/19 07:24:09;;;;;;;5.68;1.85;;;17.10;99.90;;;;;;5036986;28;20205;-75
2021/06/19 07:26:34;;;;;;;2.47;1.88;;;17.00;99.90;;;;;;5018502;28;20217;-72
2021/06/19 07:29:02;;;;;;;3.95;1.90;;;17.00;99.90;;;;;;5019535;28;20201;-73
2021/06/19 07:31:28;;;;;;;4.35;2.08;;;17.00;99.90;;;;;;5018607;28;20288;-72
2021/06/19 07:33:54;;;;;;;3.25;1.77;;;17.20;99.90;;;;;;5040101;28;20304;-73
2021/06/19 07:36:20;;;;;;;2.03;1.60;;;17.30;99.90;;;;;;5034277;28;20204;-72
2021/06/19 07:38:45;;;;;;;11.13;2.20;;;17.40;99.90;;;;;;5020750;28;20202;-71
2021/06/19 07:41:11;;;;;;;6.53;2.05;;;17.60;99.90;;;;;;5038310;28;20197;-72
2021/06/19 07:43:37;;;;;;;2.88;2.03;;;17.70;99.90;;;;;;5038094;28;20203;-70
2021/06/19 07:46:03;;;;;;;7.70;1.70;;;17.80;99.90;;;;;;5020029;28;20624;-72
2021/06/19 07:48:29;;;;;;;2.03;1.80;;;17.90;99.90;;;;;;5038262;28;20706;-72
2021/06/19 07:50:55;;;;;;;2.42;1.60;;;17.90;99.90;;;;;;5037668;28;20200;-72
2021/06/19 07:53:21;;;;;;;3.33;2.05;;;17.70;99.90;;;;;;5036283;28;20204;-73
2021/06/19 07:55:47;;;;;;;6.45;2.10;;;17.70;99.90;;;;;;5019338;28;20296;-70
2021/06/19 07:58:13;;;;;;;2.38;2.03;;;17.60;99.90;;;;;;5035638;28;20205;-72
2021/06/19 08:00:39;;;;;;;2.70;2.17;;;17.50;99.90;;;;;;5017375;28;20318;-73
2021/06/19 08:03:05;;;;;;;1.98;1.77;;;17.70;99.90;;;;;;5015281;28;20226;-71
2021/06/19 08:05:30;;;;;;;9.98;2.20;;;17.80;99.90;;;;;;5018785;28;20288;-71
2021/06/19 08:07:56;;;;;;;2.33;1.88;;;18.20;99.90;;;;;;5027074;28;20663;-71
2021/06/19 08:10:24;;;;;;;8.80;2.00;;;18.30;99.90;;;;;;5015774;28;20226;-71
2021/06/19 08:12:50;;;;;;;4.60;1.80;;;18.60;99.90;;;;;;5018201;28;20827;-70
2021/06/19 08:15:16;;;;;;;4.10;1.90;;;18.50;99.90;;;;;;5017442;28;20357;-72
2021/06/19 08:17:42;;;;;;;2.95;1.95;;;18.30;99.90;;;;;;5012772;28;20499;-73
2021/06/19 08:20:09;;;;;;;4.55;2.00;;;18.20;99.90;;;;;;5015791;28;20321;-70
2021/06/19 08:22:35;;;;;;;4.30;2.08;;;17.90;99.90;;;;;;5016471;28;20202;-70
2021/06/19 08:25:01;;;;;;;3.10;1.95;;;17.80;99.90;;;;;;5010606;28;20187;-70
2021/06/19 08:27:27;;;;;;;3.25;1.90;;;17.90;99.90;;;;;;5018957;28;20300;-68
2021/06/19 08:29:55;;;;;;;4.72;2.28;;;18.10;99.90;;;;;;5015889;28;20236;-71
2021/06/19 08:32:21;;;;;;;2.53;1.90;;;18.30;99.90;;;;;;5029022;28;20237;-71
2021/06/19 08:34:48;;;;;;;3.35;2.05;;;18.60;99.90;;;;;;5007349;28;20293;-72
2021/06/19 08:37:13;;;;;;;2.60;1.75;;;18.70;99.90;;;;;;5016950;28;20203;-71
2021/06/19 08:39:39;;;;;;;4.50;1.90;;;19.10;99.90;;;;;;5019810;28;20860;-70
2021/06/19 08:42:06;;;;;;;5.43;2.08;;;19.10;99.90;;;;;;5011982;28;20289;-71
2021/06/19 08:44:32;;;;;;;3.38;2.33;;;19.20;99.90;;;;;;5014706;28;20209;-72
2021/06/19 08:46:59;;;;;;;3.30;1.85;;;19.30;99.90;;;;;;5019916;28;20202;-71
2021/06/19 08:49:26;;;;;;;4.53;1.98;;;19.60;99.90;;;;;;5018257;28;20204;-72
2021/06/19 08:51:53;;;;;;;2.85;1.83;;;19.50;99.90;;;;;;5010721;28;20209;-73
2021/06/19 08:54:20;;;;;;;3.33;1.88;;;19.50;99.90;;;;;;5005985;28;20754;-72
2021/06/19 08:56:46;;;;;;;2.95;1.85;;;19.70;99.90;;;;;;5030313;28;20198;-72
2021/06/19 08:59:12;;;;;;;4.07;2.10;;;20.00;99.90;;;;;;5013009;28;20198;-72
2021/06/19 09:01:38;;;;;;;3.22;2.00;;;20.60;99.90;;;;;;5017257;28;20194;-72
2021/06/19 09:04:09;;;;;;;3.38;2.00;;;21.50;99.90;;;;;;5017165;28;20724;-71
2021/06/19 09:06:40;;;;;;;3.85;1.92;;;21.90;99.90;;;;;;5013141;28;20221;-72
2021/06/19 09:09:17;;;;;;;4.47;1.92;;;22.40;99.90;;;;;;5016340;28;20205;-73
2021/06/19 09:11:51;;;;;;;5.25;2.10;;;22.40;99.90;;;;;;5012573;28;20213;-71
2021/06/19 09:14:25;;;;;;;4.32;2.08;;;22.10;99.90;;;;;;5010796;28;20668;-74
2021/06/19 09:17:05;;;;;;;5.05;2.20;;;22.00;99.90;;;;;;5018320;28;21024;-71
2021/06/19 09:19:32;;;;;;;4.72;2.10;;;21.70;99.90;;;;;;5033391;28;20200;-72
2021/06/19 09:22:22;;;;;;;8.88;2.42;;;21.30;99.90;;;;;;5010487;28;20283;-71
2021/06/19 09:24:58;;;;;;;4.20;2.17;;;20.80;99.90;;;;;;5010241;28;20202;-71
2021/06/19 09:27:32;;;;;;;4.40;2.13;;;20.60;99.90;;;;;;5013182;28;20210;-71
2021/06/19 09:30:12;;;;;;;9.52;2.47;;;20.40;99.90;;;;;;5014628;28;20664;-73
2021/06/19 09:32:48;;;;;;;4.72;1.98;;;20.20;99.90;;;;;;5015871;28;20210;-71
2021/06/19 09:35:15;;;;;;;2.65;2.10;;;20.10;99.90;;;;;;5015415;28;20694;-72
2021/06/19 09:37:43;;;;;;;3.38;2.05;;;20.00;99.90;;;;;;5013218;28;20199;-73
2021/06/19 09:40:48;;;;;;;4.35;2.03;;;19.80;99.90;;;;;;5014481;28;20249;-74
2021/06/19 09:43:16;;;;;;;6.65;2.70;;;19.50;99.90;;;;;;5018275;28;20707;-73
2021/06/19 09:46:01;;;;;;;5.88;2.30;;;19.20;99.90;;;;;;5019887;28;20347;-73
2021/06/19 09:48:30;;;;;;;3.17;2.50;;;18.90;99.90;;;;;;5017545;28;20221;-73
2021/06/19 09:51:19;;;;;;;3.53;2.05;;;18.80;99.90;;;;;;5017439;28;20198;-72
2021/06/19 09:54:08;;;;;;;4.63;2.38;;;18.70;99.90;;;;;;5008122;28;20268;-73
2021/06/19 09:56:47;;;;;;;5.68;1.90;;;18.60;99.90;;;;;;5017112;28;20194;-72
2021/06/19 09:59:42;;;;;;;2.63;2.05;;;18.30;99.90;;;;;;5015471;28;20261;-72
2021/06/19 10:02:27;;;;;;;7.63;2.83;;;18.40;99.90;;;;;;5014020;28;20202;-73
2021/06/19 10:04:56;;;;;;;7.40;2.55;;;18.60;99.90;;;;;;5038588;28;20630;-71
2021/06/19 10:07:24;;;;;;;4.25;2.47;;;18.30;99.90;;;;;;5038212;28;20507;-72
2021/06/19 10:09:52;;;;;;;4.15;2.70;;;17.90;99.90;;;;;;5039609;28;20205;-72
2021/06/19 10:12:22;;;;;;;6.47;2.90;;;17.70;99.90;;;;;;5037866;28;20224;-72
2021/06/19 10:14:52;;;;;;;6.78;3.03;;;17.70;99.90;;;;;;5036847;28;20643;-71
2021/06/19 10:17:20;;;;;;;4.78;2.65;;;17.60;99.90;;;;;;5033133;28;21104;-71
2021/06/19 10:19:47;;;;;;;5.18;2.83;;;17.80;99.90;;;;;;5035009;28;20656;-71
2021/06/19 10:22:14;;;;;;;6.47;3.10;;;17.80;99.90;;;;;;5018701;28;20521;-73
2021/06/19 10:24:43;;;;;;;11.65;2.60;;;17.70;99.90;;;;;;5022068;28;20288;-72
2021/06/19 10:27:09;;;;;;;4.20;2.67;;;17.60;99.90;;;;;;5037421;28;20664;-72
2021/06/19 10:29:36;;;;;;;5.80;2.63;;;17.60;99.90;;;;;;5040584;28;20198;-71
2021/06/19 10:32:02;;;;;;;6.10;2.95;;;17.70;99.90;;;;;;5021492;28;20221;-70
2021/06/19 10:34:29;;;;;;;4.93;2.80;;;17.80;99.90;;;;;;5020972;28;20317;-72
2021/06/19 10:37:02;;;;;;;5.13;2.83;;;17.70;99.90;;;;;;5040878;28;20193;-71
2021/06/19 10:39:40;;;;;;;5.82;3.05;;;17.60;99.90;;;;;;5020896;28;20494;-73
2021/06/19 10:42:25;;;;;;;8.00;3.03;;;17.40;99.90;;;;;;5037743;28;20297;-71
2021/06/19 10:45:04;;;;;;;9.82;3.25;;;17.40;99.90;;;;;;5020426;28;20251;-70
2021/06/19 10:47:32;;;;;;;5.15;2.80;;;17.30;99.90;;;;;;5035827;28;20201;-71
2021/06/19 10:50:00;;;;;;;9.25;3.40;;;17.40;99.90;;;;;;5020519;28;20962;-70
2021/06/19 10:52:28;;;;;;;9.52;3.30;;;17.50;99.90;;;;;;5038281;28;20213;-68
2021/06/19 10:55:10;;;;;;;6.65;3.05;;;17.50;99.90;;;;;;5021789;28;20315;-71
2021/06/19 10:57:47;;;;;;;6.45;3.67;;;17.70;99.90;;;;;;5039975;28;20216;-70
2021/06/19 11:00:32;;;;;;;10.77;3.30;;;17.80;99.90;;;;;;5036286;28;20977;-71
2021/06/19 11:03:00;;;;;;;10.45;2.97;;;18.20;99.90;;;;;;5039637;28;20225;-71
2021/06/19 11:05:44;;;;;;;6.40;3.13;;;18.80;99.90;;;;;;5014679;28;20774;-71
2021/06/19 11:08:14;;;;;;;5.10;2.63;;;19.60;99.90;;;;;;5037634;28;20292;-72
2021/06/19 11:10:50;;;;;;;8.32;3.17;;;20.00;99.90;;;;;;5039372;28;20236;-72
2021/06/19 11:13:28;;;;;;;6.38;3.05;;;20.50;99.90;;;;;;5040495;28;20356;-72
2021/06/19 11:15:54;;;;;;;6.65;3.22;;;20.90;99.90;;;;;;5040093;28;20197;-71
2021/06/19 11:18:48;;;;;;;9.38;3.05;;;21.30;99.90;;;;;;5019290;28;20206;-71
2021/06/19 11:21:30;;;;;;;5.32;2.90;;;21.90;99.90;;;;;;5038990;28;20552;-70
2021/06/19 11:24:02;;;;;;;6.53;3.15;;;22.20;99.90;;;;;;5039226;28;20670;-72
2021/06/19 11:26:57;;;;;;;5.53;2.88;;;22.10;99.90;;;;;;5039847;28;20272;-71
2021/06/19 11:29:41;;;;;;;6.70;3.55;;;21.90;99.90;;;;;;5041250;28;20219;-71
2021/06/19 11:32:28;;;;;;;7.22;4.00;;;21.70;99.90;;;;;;5040644;28;20206;-71
2021/06/19 11:34:58;;;;;;;7.60;4.75;;;21.60;99.90;;;;;;5032374;28;20217;-71
2021/06/19 11:37:44;;;;;;;5.78;3.08;;;22.10;99.90;;;;;;5037688;28;20201;-71
2021/06/19 11:40:10;;;;;;;5.80;3.60;;;22.60;99.90;;;;;;5038503;28;20342;-71
2021/06/19 11:42:43;;;;;;;8.50;3.15;;;23.20;99.90;;;;;;5036672;28;20283;-71
2021/06/19 11:45:14;;;;;;;8.52;3.10;;;23.50;99.90;;;;;;5039009;28;20571;-72
2021/06/19 11:47:40;;;;;;;6.97;2.92;;;23.80;99.90;;;;;;5038868;28;20237;-72
2021/06/19 11:50:07;;;;;;;8.30;2.88;;;23.80;99.90;;;;;;5037689;28;20205;-71
2021/06/19 11:52:33;;;;;;;7.55;3.08;;;23.80;99.90;;;;;;5038095;28;20311;-73
2021/06/19 11:55:00;;;;;;;13.82;3.42;;;23.90;99.90;;;;;;5021399;28;20213;-71
2021/06/19 11:57:28;;;;;;;6.45;3.20;;;24.30;99.90;;;;;;5036699;28;20276;-71
2021/06/19 12:00:05;;;;;;;3.00;2.60;;;24.50;99.90;;;;;;5033787;28;20579;-73
2021/06/19 12:02:31;;;;;;;5.93;3.15;;;24.90;99.90;;;;;;5018671;28;20245;-71
2021/06/19 12:04:57;;;;;;;6.30;3.25;;;25.20;99.90;;;;;;5016008;28;20198;-72
2021/06/19 12:07:26;;;;;;;8.43;2.95;;;25.10;99.90;;;;;;5020569;28;20713;-72
2021/06/19 12:09:52;;;;;;;5.78;3.20;;;24.90;99.90;;;;;;5015118;28;20244;-71
2021/06/19 12:12:18;;;;;;;4.82;2.90;;;24.90;99.90;;;;;;5017395;28;20206;-72
2021/06/19 12:14:44;;;;;;;4.65;3.42;;;24.40;99.90;;;;;;5017675;28;20206;-71
2021/06/19 12:17:11;;;;;;;3.95;3.03;;;24.30;99.90;;;;;;5015029;28;20873;-73
2021/06/19 12:19:40;;;;;;;9.13;3.28;;;24.20;99.90;;;;;;5017413;28;20276;-72
2021/06/19 12:22:09;;;;;;;8.27;3.60;;;23.90;99.90;;;;;;5014166;28;20202;-70
2021/06/19 12:24:36;;;;;;;7.72;3.13;;;23.80;99.90;;;;;;5017759;28;20201;-72
2021/06/19 12:27:05;;;;;;;4.68;3.28;;;23.60;99.90;;;;;;5019045;28;20198;-72
2021/06/19 12:29:35;;;;;;;7.10;2.97;;;23.30;99.90;;;;;;5018832;28;20241;-72
2021/06/19 12:32:01;;;;;;;9.48;3.00;;;23.10;99.90;;;;;;5017325;28;20228;-73
2021/06/19 12:34:28;;;;;;;13.07;3.40;;;22.90;99.90;;;;;;5018007;28;20237;-73
2021/06/19 12:36:55;;;;;;;11.23;3.33;;;22.90;99.90;;;;;;5016016;28;20301;-73
2021/06/19 12:39:21;;;;;;;7.15;3.63;;;23.00;99.90;;;;;;5012962;28;20264;-73
2021/06/19 12:41:47;;;;;;;11.45;3.50;;;22.90;99.90;;;;;;5018491;28;20197;-72
2021/06/19 12:44:13;;;;;;;6.03;3.60;;;22.80;99.90;;;;;;5013776;28;20230;-74
2021/06/19 12:46:38;;;;;;;4.72;3.60;;;22.60;99.90;;;;;;5023327;28;20204;-73
2021/06/19 12:49:06;;;;;;;9.35;3.88;;;22.40;99.90;;;;;;5011724;28;20251;-73